createdAt,value
2023-02-10T00:00:39.825Z,103081.31
2023-02-10T00:04:42.648Z,103080.25
2023-02-10T00:08:48.579Z,103083.47
2023-02-10T00:12:53.767Z,103089.94
2023-02-10T00:16:57.957Z,103102.41
2023-02-10T00:21:07.969Z,103094.72
2023-02-10T00:25:10.741Z,103096.38
2023-02-10T00:29:15.048Z,103088.94
2023-02-10T00:33:18.975Z,103093.09
2023-02-10T00:37:21.797Z,103090.69
2023-02-10T00:41:26.349Z,103093.63
2023-02-10T00:45:30.523Z,103101.94
2023-02-10T00:49:33.396Z,103099.38
2023-02-10T00:53:36.717Z,103099.88
2023-02-10T00:57:39.632Z,103100.53
2023-02-10T01:01:43.984Z,103097.38
2023-02-10T01:05:47.302Z,103113.47
2023-02-10T01:09:52.160Z,103104.78
2023-02-10T01:13:54.973Z,103112.97
2023-02-10T01:17:59.395Z,103107.75
2023-02-10T01:22:02.271Z,103110.44
2023-02-10T01:26:05.664Z,103113.13
2023-02-10T01:30:09.459Z,103121.16
2023-02-10T01:34:13.689Z,103119.47
2023-02-10T01:38:16.563Z,103123.00
2023-02-10T01:42:19.398Z,103127.75
2023-02-10T01:46:22.426Z,103129.72
2023-02-10T01:50:31.795Z,103121.91
2023-02-10T01:54:37.512Z,103124.84
2023-02-10T01:58:42.418Z,103125.31
2023-02-10T02:02:46.400Z,103126.66
2023-02-10T02:06:52.320Z,103127.28
2023-02-10T02:11:05.438Z,103130.09
2023-02-10T02:15:16.740Z,103132.19
2023-02-10T02:20:16.852Z,103132.69
2023-02-10T02:24:37.482Z,103137.56
2023-02-10T02:28:50.657Z,103142.06
2023-02-10T02:32:59.345Z,103136.69
2023-02-10T02:37:06.661Z,103134.00
2023-02-10T02:41:10.045Z,103137.69
2023-02-10T02:45:16.534Z,103131.69
2023-02-10T02:49:29.021Z,103128.28
2023-02-10T02:53:40.261Z,103143.66
2023-02-10T02:57:49.806Z,103125.97
2023-02-10T03:01:57.821Z,103150.09
2023-02-10T03:06:02.056Z,103145.69
2023-02-10T03:10:06.074Z,103143.75
2023-02-10T03:14:08.968Z,103152.03
2023-02-10T03:18:11.758Z,103149.72
2023-02-10T03:22:15.881Z,103146.44
2023-02-10T03:26:18.677Z,103147.03
2023-02-10T03:30:22.942Z,103142.53
2023-02-10T03:34:25.823Z,103142.53
2023-02-10T03:38:30.808Z,103141.53
2023-02-10T03:42:33.624Z,103138.75
2023-02-10T03:46:37.720Z,103144.84
2023-02-10T03:50:41.419Z,103148.25
2023-02-10T03:54:45.813Z,103156.19
2023-02-10T03:58:48.718Z,103144.00
2023-02-10T04:02:51.541Z,103135.22
2023-02-10T04:06:54.350Z,103150.22
2023-02-10T04:10:58.582Z,103148.16
2023-02-10T04:15:01.525Z,103152.63
2023-02-10T04:19:04.566Z,103145.09
2023-02-10T04:23:07.471Z,103150.22
2023-02-10T04:27:11.642Z,103143.75
2023-02-10T04:31:14.590Z,103156.31
2023-02-10T04:35:17.588Z,103160.47
2023-02-10T04:39:20.470Z,103159.22
2023-02-10T04:43:24.927Z,103167.28
2023-02-10T04:47:29.457Z,103165.31
2023-02-10T04:51:32.345Z,103181.06
2023-02-10T04:55:35.831Z,103179.09
2023-02-10T04:59:40.154Z,103179.09
2023-02-10T05:03:43.042Z,103180.94
2023-02-10T05:07:46.084Z,103192.28
2023-02-10T05:11:48.951Z,103202.28
2023-02-10T05:15:53.179Z,103205.81
2023-02-10T05:19:55.959Z,103188.03
2023-02-10T05:23:59.698Z,103187.13
2023-02-10T05:28:03.276Z,103187.28
2023-02-10T05:32:07.625Z,103186.53
2023-02-10T05:36:10.619Z,103187.53
2023-02-10T05:40:13.550Z,103188.50
2023-02-10T05:44:16.454Z,103185.69
2023-02-10T05:48:20.744Z,103181.41
2023-02-10T05:52:23.551Z,103187.88
2023-02-10T05:56:26.642Z,103188.59
2023-02-10T06:00:29.448Z,103188.97
2023-02-10T06:04:34.158Z,103198.59
2023-02-10T06:08:37.038Z,103189.44
2023-02-10T06:12:39.902Z,103197.88
2023-02-10T06:16:42.851Z,103202.88
2023-02-10T06:20:49.122Z,103192.88
2023-02-10T06:24:51.929Z,103189.25
2023-02-10T06:28:54.753Z,103200.91
2023-02-10T06:32:57.577Z,103183.97
2023-02-10T06:37:01.751Z,103191.78
2023-02-10T06:41:05.121Z,103199.34
2023-02-10T06:45:09.769Z,103204.34
2023-02-10T06:49:12.581Z,103201.78
2023-02-10T06:53:16.827Z,103210.56
2023-02-10T06:57:19.700Z,103211.91
2023-02-10T07:01:22.579Z,103212.75
2023-02-10T07:05:26.031Z,103218.00
2023-02-10T07:09:30.416Z,103225.69
2023-02-10T07:13:33.244Z,103228.13
2023-02-10T07:17:37.487Z,103230.69
2023-02-10T07:21:40.314Z,103239.59
2023-02-10T07:25:44.539Z,103228.13
2023-02-10T07:29:48.126Z,103235.56
2023-02-10T07:33:50.937Z,103231.03
2023-02-10T07:37:53.775Z,103227.00
2023-02-10T07:41:57.946Z,103228.59
2023-02-10T07:46:10.629Z,103227.03
2023-02-10T07:50:13.483Z,103225.34
2023-02-10T07:54:16.388Z,103228.59
2023-02-10T07:58:20.610Z,103232.91
2023-02-10T08:02:23.396Z,103230.94
2023-02-10T08:06:27.916Z,103230.69
2023-02-10T08:10:30.752Z,103235.81
2023-02-10T08:14:35.626Z,103249.34
2023-02-10T08:18:38.481Z,103267.50
2023-02-10T08:22:41.462Z,103266.06
2023-02-10T08:26:44.848Z,103273.84
2023-02-10T08:30:49.476Z,103278.13
2023-02-10T08:34:54.470Z,103284.72
2023-02-10T08:38:59.122Z,103287.06
2023-02-10T08:43:02.271Z,103279.00
2023-02-10T08:47:07.922Z,103284.72
2023-02-10T08:51:14.074Z,103276.16
2023-02-10T08:55:16.937Z,103274.81
2023-02-10T08:59:19.766Z,103265.41
2023-02-10T09:03:24.810Z,103280.19
2023-02-10T09:07:27.665Z,103270.38
2023-02-10T09:11:30.538Z,103261.47
2023-02-10T09:15:33.353Z,103247.88
2023-02-10T09:19:37.907Z,103256.50
2023-02-10T09:23:40.843Z,103255.28
2023-02-10T09:27:43.677Z,103250.91
2023-02-10T09:31:46.718Z,103253.31
2023-02-10T09:35:51.203Z,103261.84
2023-02-10T09:39:54.187Z,103273.94
2023-02-10T09:44:11.072Z,103278.09
2023-02-10T09:48:36.157Z,103282.31
2023-02-10T09:52:55.204Z,103273.66
2023-02-10T09:56:58.318Z,103270.63
2023-02-10T10:01:06.070Z,103280.63
2023-02-10T10:05:18.303Z,103275.81
2023-02-10T10:09:34.795Z,103273.72
2023-02-10T10:13:37.709Z,103278.84
2023-02-10T10:17:56.936Z,103289.06
2023-02-10T10:22:14.162Z,103280.84
2023-02-10T10:26:37.853Z,103280.84
2023-02-10T10:30:47.214Z,103295.31
2023-02-10T10:34:53.793Z,103296.44
2023-02-10T10:39:02.102Z,103296.88
2023-02-10T10:43:06.588Z,103291.69
2023-02-10T10:47:16.004Z,103291.03
2023-02-10T10:51:19.541Z,103285.13
2023-02-10T10:55:31.733Z,103286.81
2023-02-10T10:59:43.018Z,103269.28
2023-02-10T11:03:45.962Z,103276.66
2023-02-10T11:07:50.192Z,103272.38
2023-02-10T11:11:55.290Z,103273.34
2023-02-10T11:16:06.922Z,103277.56
2023-02-10T11:20:24.653Z,103267.97
2023-02-10T11:24:29.711Z,103267.59
2023-02-10T11:28:34.047Z,103265.66
2023-02-10T11:32:39.673Z,103255.47
2023-02-10T11:36:45.525Z,103251.34
2023-02-10T11:40:53.726Z,103235.31
2023-02-10T11:44:58.805Z,103230.22
2023-02-10T11:49:06.144Z,103223.59
2023-02-10T11:53:20.730Z,103221.88
2023-02-10T11:57:50.324Z,103221.19
2023-02-10T12:01:56.591Z,103229.13
2023-02-10T12:06:09.727Z,103220.94
2023-02-10T12:10:21.362Z,103220.63
2023-02-10T12:14:49.353Z,103216.25
2023-02-10T12:19:03.688Z,103207.31
2023-02-10T12:23:39.035Z,103203.78
2023-02-10T12:27:51.733Z,103201.38
2023-02-10T12:32:04.796Z,103195.97
2023-02-10T12:36:16.516Z,103188.47
2023-02-10T12:40:50.300Z,103188.88
2023-02-10T12:45:01.222Z,103197.50
2023-02-10T12:49:19.569Z,103192.69
2023-02-10T12:53:27.236Z,103191.69
2023-02-10T12:57:40.580Z,103195.25
2023-02-10T13:01:48.411Z,103178.22
2023-02-10T13:05:57.369Z,103171.25
2023-02-10T13:10:10.126Z,103162.00
2023-02-10T13:14:18.121Z,103169.50
2023-02-10T13:18:23.030Z,103175.75
2023-02-10T13:22:42.140Z,103174.06
2023-02-10T13:26:57.743Z,103171.91
2023-02-10T13:31:14.196Z,103174.31
2023-02-10T13:35:21.515Z,103165.31
2023-02-10T13:39:29.769Z,103153.25
2023-02-10T13:43:35.054Z,103140.88
2023-02-10T13:47:43.321Z,103152.53
2023-02-10T13:51:46.998Z,103140.03
2023-02-10T13:55:49.842Z,103115.84
2023-02-10T13:59:52.662Z,103108.16
2023-02-10T14:03:58.424Z,103102.59
2023-02-10T14:08:01.440Z,103099.63
2023-02-10T14:12:07.421Z,103110.69
2023-02-10T14:16:31.499Z,103107.69
2023-02-10T14:20:39.171Z,103098.22
2023-02-10T14:24:50.883Z,103097.78
2023-02-10T14:28:56.933Z,103095.16
2023-02-10T14:33:00.467Z,103082.13
2023-02-10T14:37:16.960Z,103078.28
2023-02-10T14:41:21.396Z,103069.22
2023-02-10T14:45:27.230Z,103056.16
2023-02-10T14:49:33.989Z,103059.38
2023-02-10T14:53:42.242Z,103050.44
2023-02-10T14:57:46.138Z,103064.72
2023-02-10T15:01:49.047Z,103058.69
2023-02-10T15:05:56.220Z,103058.19
2023-02-10T15:10:06.959Z,103054.50
2023-02-10T15:14:16.705Z,103039.81
2023-02-10T15:18:22.398Z,103047.75
2023-02-10T15:22:36.114Z,103055.88
2023-02-10T15:26:41.733Z,103050.63
2023-02-10T15:30:58.289Z,103050.81
2023-02-10T15:35:07.714Z,103046.53
2023-02-10T15:39:22.266Z,103032.81
2023-02-10T15:43:29.162Z,103035.66
2023-02-10T15:47:47.222Z,103031.28
2023-02-10T15:51:53.236Z,103038.84
2023-02-10T15:55:56.645Z,103040.69
2023-02-10T16:00:01.059Z,103039.16
2023-02-10T16:04:05.991Z,103031.53
2023-02-10T16:08:20.714Z,103022.03
2023-02-10T16:12:25.448Z,103025.03
2023-02-10T16:16:30.011Z,103012.88
2023-02-10T16:20:34.603Z,103022.13
2023-02-10T16:24:38.220Z,103018.41
2023-02-10T16:28:41.211Z,103022.13
2023-02-10T16:32:46.136Z,103008.31
2023-02-10T16:36:49.105Z,103003.19
2023-02-10T16:40:52.165Z,103019.06
2023-02-10T16:44:55.099Z,102977.66
2023-02-10T16:48:59.422Z,102977.13
2023-02-10T16:53:04.764Z,102983.38
2023-02-10T16:57:08.729Z,102981.53
2023-02-10T17:01:11.657Z,102964.81
2023-02-10T17:05:17.246Z,102958.00
2023-02-10T17:09:22.031Z,102960.16
2023-02-10T17:13:24.917Z,102972.59
2023-02-10T17:17:27.978Z,102978.78
2023-02-10T17:21:34.900Z,102984.50
2023-02-10T17:26:05.173Z,102999.31
2023-02-10T17:30:09.365Z,103022.75
2023-02-10T17:34:14.063Z,103022.06
2023-02-10T17:38:33.267Z,103037.97
2023-02-10T17:42:36.302Z,103030.56
2023-02-10T17:46:39.352Z,103007.63
2023-02-10T17:50:42.320Z,103003.09
2023-02-10T17:54:46.742Z,102999.38
2023-02-10T17:58:50.431Z,102989.91
2023-02-10T18:02:54.059Z,102981.13
2023-02-10T18:06:57.341Z,102987.50
2023-02-10T18:11:01.502Z,102981.13
2023-02-10T18:15:05.060Z,102987.19
2023-02-10T18:19:08.838Z,102968.13
2023-02-10T18:23:12.357Z,102980.16
2023-02-10T18:27:16.963Z,102973.94
2023-02-10T18:31:20.938Z,102981.03
2023-02-10T18:35:24.167Z,102975.47
2023-02-10T18:39:27.146Z,102977.63
2023-02-10T18:43:32.158Z,102978.47
2023-02-10T18:47:35.312Z,102973.22
2023-02-10T18:51:38.267Z,102985.75
2023-02-10T18:55:44.498Z,102975.63
2023-02-10T18:59:48.749Z,102981.19
2023-02-10T19:03:53.546Z,102988.13
2023-02-10T19:08:02.475Z,102999.75
2023-02-10T19:12:05.590Z,102993.22
2023-02-10T19:16:12.662Z,102991.50
2023-02-10T19:20:17.219Z,103003.16
2023-02-10T19:24:20.470Z,103000.44
2023-02-10T19:28:23.683Z,103004.03
2023-02-10T19:32:28.067Z,102996.59
2023-02-10T19:36:31.259Z,103004.53
2023-02-10T19:40:35.008Z,103006.06
2023-02-10T19:44:38.167Z,103010.78
2023-02-10T19:48:44.731Z,103011.81
2023-02-10T19:52:47.827Z,102994.28
2023-02-10T19:56:50.897Z,102985.34
2023-02-10T20:01:00.332Z,102995.44
2023-02-10T20:05:05.095Z,102981.09
2023-02-10T20:09:09.642Z,102975.69
2023-02-10T20:13:15.999Z,102969.13
2023-02-10T20:17:23.952Z,102947.53
2023-02-10T20:21:29.538Z,102968.25
2023-02-10T20:25:32.652Z,102962.34
2023-02-10T20:29:36.592Z,102966.56
2023-02-10T20:33:39.557Z,102955.94
2023-02-10T20:37:44.547Z,102972.69
2023-02-10T20:41:47.767Z,102972.69
2023-02-10T20:45:50.944Z,102983.16
2023-02-10T20:49:54.048Z,103000.22
2023-02-10T20:53:58.530Z,102995.81
2023-02-10T20:58:01.560Z,103001.75
2023-02-10T21:02:05.406Z,103006.16
2023-02-10T21:06:11.927Z,103000.59
2023-02-10T21:10:20.127Z,102993.63
2023-02-10T21:14:23.979Z,102984.22
2023-02-10T21:18:27.380Z,102986.94
2023-02-10T21:22:32.854Z,102977.81
2023-02-10T21:26:38.065Z,102984.06
2023-02-10T21:30:46.607Z,102970.72
2023-02-10T21:34:50.701Z,102966.31
2023-02-10T21:38:55.757Z,102962.44
2023-02-10T21:43:00.149Z,102965.03
2023-02-10T21:47:06.037Z,102956.91
2023-02-10T21:51:09.057Z,102963.00
2023-02-10T21:55:12.238Z,102968.56
2023-02-10T21:59:22.364Z,102965.53
2023-02-10T22:03:33.580Z,102960.13
2023-02-10T22:07:39.711Z,102956.25
2023-02-10T22:11:42.550Z,102954.25
2023-02-10T22:15:53.454Z,102947.84
2023-02-10T22:19:56.438Z,102961.34
2023-02-10T22:23:59.732Z,102956.63
2023-02-10T22:28:03.121Z,102960.34
2023-02-10T22:32:07.491Z,102949.25
2023-02-10T22:36:13.031Z,102947.69
2023-02-10T22:40:17.692Z,102944.97
2023-02-10T22:44:20.605Z,102952.25
2023-02-10T22:48:24.924Z,102936.88
2023-02-10T22:52:28.110Z,102938.56
2023-02-10T22:56:33.505Z,102942.94
2023-02-10T23:00:40.370Z,102941.25
2023-02-10T23:04:45.598Z,102934.00
2023-02-10T23:08:49.023Z,102924.38
2023-02-10T23:12:52.081Z,102915.94
2023-02-10T23:16:57.024Z,102925.53
2023-02-10T23:21:01.582Z,102917.09
2023-02-10T23:25:05.529Z,102916.25
2023-02-10T23:29:11.622Z,102917.44
2023-02-10T23:33:14.781Z,102902.91
2023-02-10T23:37:19.475Z,102918.13
2023-02-10T23:41:23.031Z,102909.16
2023-02-10T23:45:26.192Z,102916.44
2023-02-10T23:49:30.176Z,102890.94
2023-02-10T23:53:36.647Z,102890.94
2023-02-10T23:57:45.971Z,102894.19
